sensor_id;sensor_type;location;lat;lon;timestamp;temperature;humidity
12060;DHT22;6091;51.432;6.880;2023-11-19T00:00:16;23.50;38.80
12060;DHT22;6091;51.432;6.880;2023-11-19T00:02:44;23.50;38.80
12060;DHT22;6091;51.432;6.880;2023-11-19T00:05:11;23.50;38.80
12060;DHT22;6091;51.432;6.880;2023-11-19T00:07:40;23.40;38.80
12060;DHT22;6091;51.432;6.880;2023-11-19T00:10:14;23.40;38.80
12060;DHT22;6091;51.432;6.880;2023-11-19T00:12:47;23.40;38.90
12060;DHT22;6091;51.432;6.880;2023-11-19T00:15:16;23.40;38.90
12060;DHT22;6091;51.432;6.880;2023-11-19T00:17:47;23.40;38.90
12060;DHT22;6091;51.432;6.880;2023-11-19T00:20:17;23.40;38.90
12060;DHT22;6091;51.432;6.880;2023-11-19T00:22:45;23.30;38.80
12060;DHT22;6091;51.432;6.880;2023-11-19T00:25:17;23.30;38.90
12060;DHT22;6091;51.432;6.880;2023-11-19T00:27:45;23.30;38.90
12060;DHT22;6091;51.432;6.880;2023-11-19T00:30:13;23.30;38.90
12060;DHT22;6091;51.432;6.880;2023-11-19T00:32:41;23.30;38.90
12060;DHT22;6091;51.432;6.880;2023-11-19T00:35:09;23.30;38.90
12060;DHT22;6091;51.432;6.880;2023-11-19T00:37:41;23.30;39.00
12060;DHT22;6091;51.432;6.880;2023-11-19T00:40:16;23.30;39.00
12060;DHT22;6091;51.432;6.880;2023-11-19T00:42:45;23.30;39.00
12060;DHT22;6091;51.432;6.880;2023-11-19T00:45:12;23.20;39.00
12060;DHT22;6091;51.432;6.880;2023-11-19T00:47:41;23.20;39.00
12060;DHT22;6091;51.432;6.880;2023-11-19T00:50:08;23.20;39.00
12060;DHT22;6091;51.432;6.880;2023-11-19T00:52:37;23.20;39.00
12060;DHT22;6091;51.432;6.880;2023-11-19T00:55:05;23.20;39.00
12060;DHT22;6091;51.432;6.880;2023-11-19T00:57:33;23.20;39.00
12060;DHT22;6091;51.432;6.880;2023-11-19T01:00:01;23.20;39.10
12060;DHT22;6091;51.432;6.880;2023-11-19T01:02:30;23.20;39.10
12060;DHT22;6091;51.432;6.880;2023-11-19T01:04:57;23.20;39.10
12060;DHT22;6091;51.432;6.880;2023-11-19T01:07:24;23.20;39.10
12060;DHT22;6091;51.432;6.880;2023-11-19T01:09:53;23.20;39.10
12060;DHT22;6091;51.432;6.880;2023-11-19T01:12:20;23.10;39.00
12060;DHT22;6091;51.432;6.880;2023-11-19T01:14:47;23.10;39.00
12060;DHT22;6091;51.432;6.880;2023-11-19T01:17:15;23.10;39.10
12060;DHT22;6091;51.432;6.880;2023-11-19T01:19:43;23.10;39.10
12060;DHT22;6091;51.432;6.880;2023-11-19T01:22:10;23.10;39.10
12060;DHT22;6091;51.432;6.880;2023-11-19T01:24:40;23.10;39.10
12060;DHT22;6091;51.432;6.880;2023-11-19T01:27:07;23.10;39.10
12060;DHT22;6091;51.432;6.880;2023-11-19T01:29:35;23.10;39.10
12060;DHT22;6091;51.432;6.880;2023-11-19T01:32:05;23.10;39.10
12060;DHT22;6091;51.432;6.880;2023-11-19T01:34:32;23.10;39.10
12060;DHT22;6091;51.432;6.880;2023-11-19T01:36:59;23.10;39.20
12060;DHT22;6091;51.432;6.880;2023-11-19T01:39:26;23.10;39.20
12060;DHT22;6091;51.432;6.880;2023-11-19T01:41:54;23.10;39.20
12060;DHT22;6091;51.432;6.880;2023-11-19T01:44:21;23.10;39.80
12060;DHT22;6091;51.432;6.880;2023-11-19T01:46:49;23.10;39.20
12060;DHT22;6091;51.432;6.880;2023-11-19T01:49:17;23.10;39.20
12060;DHT22;6091;51.432;6.880;2023-11-19T01:51:47;23.00;39.20
12060;DHT22;6091;51.432;6.880;2023-11-19T01:54:15;23.10;39.20
12060;DHT22;6091;51.432;6.880;2023-11-19T01:56:43;23.10;39.20
12060;DHT22;6091;51.432;6.880;2023-11-19T01:59:11;23.10;39.30
12060;DHT22;6091;51.432;6.880;2023-11-19T02:01:41;23.00;39.20
12060;DHT22;6091;51.432;6.880;2023-11-19T02:04:09;23.00;39.20
12060;DHT22;6091;51.432;6.880;2023-11-19T02:06:40;23.00;39.20
12060;DHT22;6091;51.432;6.880;2023-11-19T02:09:09;23.00;39.30
12060;DHT22;6091;51.432;6.880;2023-11-19T02:11:39;23.00;39.20
12060;DHT22;6091;51.432;6.880;2023-11-19T02:14:07;23.00;39.30
12060;DHT22;6091;51.432;6.880;2023-11-19T02:16:34;23.00;39.30
12060;DHT22;6091;51.432;6.880;2023-11-19T02:19:01;23.00;39.20
12060;DHT22;6091;51.432;6.880;2023-11-19T02:21:29;23.00;39.30
12060;DHT22;6091;51.432;6.880;2023-11-19T02:23:56;23.00;39.30
12060;DHT22;6091;51.432;6.880;2023-11-19T02:26:45;23.00;39.30
12060;DHT22;6091;51.432;6.880;2023-11-19T02:29:22;23.00;39.30
12060;DHT22;6091;51.432;6.880;2023-11-19T02:31:50;23.00;39.30
12060;DHT22;6091;51.432;6.880;2023-11-19T02:34:17;23.00;39.30
12060;DHT22;6091;51.432;6.880;2023-11-19T02:36:44;23.00;39.30
12060;DHT22;6091;51.432;6.880;2023-11-19T02:39:12;23.00;39.40
12060;DHT22;6091;51.432;6.880;2023-11-19T02:41:40;23.00;39.30
12060;DHT22;6091;51.432;6.880;2023-11-19T02:44:07;23.00;39.40
12060;DHT22;6091;51.432;6.880;2023-11-19T02:46:34;23.00;39.40
12060;DHT22;6091;51.432;6.880;2023-11-19T02:49:02;23.00;39.40
12060;DHT22;6091;51.432;6.880;2023-11-19T02:51:29;23.00;39.40
12060;DHT22;6091;51.432;6.880;2023-11-19T02:53:57;23.00;39.40
12060;DHT22;6091;51.432;6.880;2023-11-19T02:56:24;23.00;39.40
12060;DHT22;6091;51.432;6.880;2023-11-19T02:58:53;23.00;39.40
12060;DHT22;6091;51.432;6.880;2023-11-19T03:01:24;23.00;39.40
12060;DHT22;6091;51.432;6.880;2023-11-19T03:04:00;23.00;39.50
12060;DHT22;6091;51.432;6.880;2023-11-19T03:06:30;22.90;39.40
12060;DHT22;6091;51.432;6.880;2023-11-19T03:08:58;23.00;39.40
12060;DHT22;6091;51.432;6.880;2023-11-19T03:11:28;22.90;39.40
12060;DHT22;6091;51.432;6.880;2023-11-19T03:13:57;23.00;39.50
12060;DHT22;6091;51.432;6.880;2023-11-19T03:16:25;22.90;39.40
12060;DHT22;6091;51.432;6.880;2023-11-19T03:18:54;23.00;39.50
12060;DHT22;6091;51.432;6.880;2023-11-19T03:21:29;23.00;39.50
12060;DHT22;6091;51.432;6.880;2023-11-19T03:23:58;23.00;39.60
12060;DHT22;6091;51.432;6.880;2023-11-19T03:26:28;22.90;39.40
12060;DHT22;6091;51.432;6.880;2023-11-19T03:28:56;22.90;39.40
12060;DHT22;6091;51.432;6.880;2023-11-19T03:31:24;22.90;39.50
12060;DHT22;6091;51.432;6.880;2023-11-19T03:33:51;22.90;39.40
12060;DHT22;6091;51.432;6.880;2023-11-19T03:36:21;22.90;39.50
12060;DHT22;6091;51.432;6.880;2023-11-19T03:38:48;22.90;39.50
12060;DHT22;6091;51.432;6.880;2023-11-19T03:41:15;22.90;39.50
12060;DHT22;6091;51.432;6.880;2023-11-19T03:43:43;22.90;39.50
12060;DHT22;6091;51.432;6.880;2023-11-19T03:46:21;22.90;39.50
12060;DHT22;6091;51.432;6.880;2023-11-19T03:48:49;22.90;39.60
12060;DHT22;6091;51.432;6.880;2023-11-19T03:51:17;22.90;40.00
12060;DHT22;6091;51.432;6.880;2023-11-19T03:53:47;22.90;39.50
12060;DHT22;6091;51.432;6.880;2023-11-19T03:56:14;22.90;39.60
12060;DHT22;6091;51.432;6.880;2023-11-19T03:58:41;22.90;39.50
12060;DHT22;6091;51.432;6.880;2023-11-19T04:01:12;22.90;39.50
12060;DHT22;6091;51.432;6.880;2023-11-19T04:03:42;22.90;39.50
12060;DHT22;6091;51.432;6.880;2023-11-19T04:06:12;22.90;39.50
12060;DHT22;6091;51.432;6.880;2023-11-19T04:08:39;22.90;39.50
12060;DHT22;6091;51.432;6.880;2023-11-19T04:11:06;22.90;39.60
12060;DHT22;6091;51.432;6.880;2023-11-19T04:13:35;22.90;39.60
12060;DHT22;6091;51.432;6.880;2023-11-19T04:16:02;22.90;39.50
12060;DHT22;6091;51.432;6.880;2023-11-19T04:18:30;22.90;39.60
12060;DHT22;6091;51.432;6.880;2023-11-19T04:20:58;22.90;39.60
12060;DHT22;6091;51.432;6.880;2023-11-19T04:23:28;22.80;39.50
12060;DHT22;6091;51.432;6.880;2023-11-19T04:25:55;22.80;39.50
12060;DHT22;6091;51.432;6.880;2023-11-19T04:28:36;22.90;39.60
12060;DHT22;6091;51.432;6.880;2023-11-19T04:31:04;22.80;39.50
12060;DHT22;6091;51.432;6.880;2023-11-19T04:33:32;22.90;39.60
12060;DHT22;6091;51.432;6.880;2023-11-19T04:36:00;22.80;39.60
12060;DHT22;6091;51.432;6.880;2023-11-19T04:38:27;22.80;39.60
12060;DHT22;6091;51.432;6.880;2023-11-19T04:40:54;22.80;39.60
12060;DHT22;6091;51.432;6.880;2023-11-19T04:43:24;22.80;39.60
12060;DHT22;6091;51.432;6.880;2023-11-19T04:45:51;22.80;39.60
12060;DHT22;6091;51.432;6.880;2023-11-19T04:48:18;22.80;39.60
12060;DHT22;6091;51.432;6.880;2023-11-19T04:50:46;22.80;39.60
12060;DHT22;6091;51.432;6.880;2023-11-19T04:53:13;22.80;39.60
12060;DHT22;6091;51.432;6.880;2023-11-19T04:55:41;22.80;39.60
12060;DHT22;6091;51.432;6.880;2023-11-19T04:58:08;22.80;39.60
12060;DHT22;6091;51.432;6.880;2023-11-19T05:00:35;22.80;39.60
12060;DHT22;6091;51.432;6.880;2023-11-19T05:03:02;22.80;39.70
12060;DHT22;6091;51.432;6.880;2023-11-19T05:05:29;22.80;39.70
12060;DHT22;6091;51.432;6.880;2023-11-19T05:07:59;22.80;39.70
12060;DHT22;6091;51.432;6.880;2023-11-19T05:10:26;22.80;39.70
12060;DHT22;6091;51.432;6.880;2023-11-19T05:12:53;22.80;39.80
12060;DHT22;6091;51.432;6.880;2023-11-19T05:15:22;22.80;39.90
12060;DHT22;6091;51.432;6.880;2023-11-19T05:17:51;22.80;40.60
12060;DHT22;6091;51.432;6.880;2023-11-19T05:20:18;22.80;40.00
12060;DHT22;6091;51.432;6.880;2023-11-19T05:22:45;22.80;40.10
12060;DHT22;6091;51.432;6.880;2023-11-19T05:25:12;22.80;40.10
12060;DHT22;6091;51.432;6.880;2023-11-19T05:27:40;22.90;40.20
12060;DHT22;6091;51.432;6.880;2023-11-19T05:30:07;22.90;40.30
12060;DHT22;6091;51.432;6.880;2023-11-19T05:32:38;22.90;40.20
12060;DHT22;6091;51.432;6.880;2023-11-19T05:35:06;22.90;40.20
12060;DHT22;6091;51.432;6.880;2023-11-19T05:37:34;23.00;40.30
12060;DHT22;6091;51.432;6.880;2023-11-19T05:40:02;23.00;40.30
12060;DHT22;6091;51.432;6.880;2023-11-19T05:42:31;23.10;40.40
12060;DHT22;6091;51.432;6.880;2023-11-19T05:44:58;23.10;40.40
12060;DHT22;6091;51.432;6.880;2023-11-19T05:47:26;23.10;40.40
12060;DHT22;6091;51.432;6.880;2023-11-19T05:49:54;23.20;40.40
12060;DHT22;6091;51.432;6.880;2023-11-19T05:52:21;23.20;40.40
12060;DHT22;6091;51.432;6.880;2023-11-19T05:54:50;23.20;40.40
12060;DHT22;6091;51.432;6.880;2023-11-19T05:57:19;23.20;40.30
12060;DHT22;6091;51.432;6.880;2023-11-19T05:59:52;23.30;40.40
12060;DHT22;6091;51.432;6.880;2023-11-19T06:02:20;23.30;40.40
12060;DHT22;6091;51.432;6.880;2023-11-19T06:04:48;23.30;40.30
12060;DHT22;6091;51.432;6.880;2023-11-19T06:07:16;23.30;40.30
12060;DHT22;6091;51.432;6.880;2023-11-19T06:09:43;23.40;40.40
12060;DHT22;6091;51.432;6.880;2023-11-19T06:12:10;23.40;40.40
12060;DHT22;6091;51.432;6.880;2023-11-19T06:14:37;23.40;40.30
12060;DHT22;6091;51.432;6.880;2023-11-19T06:17:04;23.40;40.30
12060;DHT22;6091;51.432;6.880;2023-11-19T06:19:32;23.40;40.30
12060;DHT22;6091;51.432;6.880;2023-11-19T06:22:00;23.40;40.20
12060;DHT22;6091;51.432;6.880;2023-11-19T06:24:27;23.40;40.20
12060;DHT22;6091;51.432;6.880;2023-11-19T06:26:54;23.40;40.80
12060;DHT22;6091;51.432;6.880;2023-11-19T06:29:21;23.50;40.30
12060;DHT22;6091;51.432;6.880;2023-11-19T06:31:48;23.50;40.30
12060;DHT22;6091;51.432;6.880;2023-11-19T06:34:15;23.50;40.30
12060;DHT22;6091;51.432;6.880;2023-11-19T06:36:42;23.50;40.20
12060;DHT22;6091;51.432;6.880;2023-11-19T06:39:12;23.50;40.20
12060;DHT22;6091;51.432;6.880;2023-11-19T06:41:40;23.50;40.20
12060;DHT22;6091;51.432;6.880;2023-11-19T06:44:11;23.50;40.20
12060;DHT22;6091;51.432;6.880;2023-11-19T06:46:38;23.50;40.20
12060;DHT22;6091;51.432;6.880;2023-11-19T06:49:06;23.50;40.20
12060;DHT22;6091;51.432;6.880;2023-11-19T06:51:34;23.40;40.00
12060;DHT22;6091;51.432;6.880;2023-11-19T06:54:01;23.40;40.00
12060;DHT22;6091;51.432;6.880;2023-11-19T06:56:29;23.50;40.10
12060;DHT22;6091;51.432;6.880;2023-11-19T06:58:56;23.50;40.10
12060;DHT22;6091;51.432;6.880;2023-11-19T07:01:23;23.40;40.00
12060;DHT22;6091;51.432;6.880;2023-11-19T07:03:50;23.50;40.20
12060;DHT22;6091;51.432;6.880;2023-11-19T07:06:20;23.50;40.10
12060;DHT22;6091;51.432;6.880;2023-11-19T07:09:01;23.40;40.00
12060;DHT22;6091;51.432;6.880;2023-11-19T07:11:41;23.50;40.10
12060;DHT22;6091;51.432;6.880;2023-11-19T07:14:08;23.50;40.10
12060;DHT22;6091;51.432;6.880;2023-11-19T07:16:36;23.40;40.00
12060;DHT22;6091;51.432;6.880;2023-11-19T07:19:06;23.40;40.00
12060;DHT22;6091;51.432;6.880;2023-11-19T07:21:34;23.40;40.10
12060;DHT22;6091;51.432;6.880;2023-11-19T07:24:04;23.30;40.00
12060;DHT22;6091;51.432;6.880;2023-11-19T07:26:32;23.40;40.00
12060;DHT22;6091;51.432;6.880;2023-11-19T07:28:59;23.40;40.10
12060;DHT22;6091;51.432;6.880;2023-11-19T07:31:27;23.40;40.00
12060;DHT22;6091;51.432;6.880;2023-11-19T07:33:54;23.40;40.00
12060;DHT22;6091;51.432;6.880;2023-11-19T07:36:22;23.40;40.10
12060;DHT22;6091;51.432;6.880;2023-11-19T07:38:49;23.40;40.10
12060;DHT22;6091;51.432;6.880;2023-11-19T07:41:17;23.40;40.10
12060;DHT22;6091;51.432;6.880;2023-11-19T07:43:44;23.40;40.10
12060;DHT22;6091;51.432;6.880;2023-11-19T07:46:12;23.50;40.20
12060;DHT22;6091;51.432;6.880;2023-11-19T07:48:40;23.50;40.20
12060;DHT22;6091;51.432;6.880;2023-11-19T07:51:10;23.50;40.20
12060;DHT22;6091;51.432;6.880;2023-11-19T07:53:42;23.50;40.20
12060;DHT22;6091;51.432;6.880;2023-11-19T07:56:09;23.50;40.10
12060;DHT22;6091;51.432;6.880;2023-11-19T07:58:37;23.50;40.20
12060;DHT22;6091;51.432;6.880;2023-11-19T08:01:05;23.50;40.20
12060;DHT22;6091;51.432;6.880;2023-11-19T08:03:32;23.50;40.20
12060;DHT22;6091;51.432;6.880;2023-11-19T08:06:02;23.50;40.10
12060;DHT22;6091;51.432;6.880;2023-11-19T08:08:30;23.40;40.10
12060;DHT22;6091;51.432;6.880;2023-11-19T08:11:01;23.50;40.10
12060;DHT22;6091;51.432;6.880;2023-11-19T08:13:28;23.50;40.10
12060;DHT22;6091;51.432;6.880;2023-11-19T08:15:55;23.50;40.10
12060;DHT22;6091;51.432;6.880;2023-11-19T08:18:23;23.50;40.10
12060;DHT22;6091;51.432;6.880;2023-11-19T08:20:51;23.50;40.10
12060;DHT22;6091;51.432;6.880;2023-11-19T08:23:20;23.50;40.10
12060;DHT22;6091;51.432;6.880;2023-11-19T08:25:47;23.40;40.00
12060;DHT22;6091;51.432;6.880;2023-11-19T08:28:15;23.50;40.10
12060;DHT22;6091;51.432;6.880;2023-11-19T08:30:42;23.50;40.20
12060;DHT22;6091;51.432;6.880;2023-11-19T08:33:11;23.40;40.00
12060;DHT22;6091;51.432;6.880;2023-11-19T08:35:38;23.50;40.10
12060;DHT22;6091;51.432;6.880;2023-11-19T08:38:05;23.60;40.20
12060;DHT22;6091;51.432;6.880;2023-11-19T08:40:33;23.60;40.20
12060;DHT22;6091;51.432;6.880;2023-11-19T08:43:00;23.60;40.20
12060;DHT22;6091;51.432;6.880;2023-11-19T08:45:28;23.60;40.10
12060;DHT22;6091;51.432;6.880;2023-11-19T08:47:55;23.60;40.20
12060;DHT22;6091;51.432;6.880;2023-11-19T08:50:23;23.60;40.10
12060;DHT22;6091;51.432;6.880;2023-11-19T08:52:50;23.60;40.10
12060;DHT22;6091;51.432;6.880;2023-11-19T08:55:18;23.60;40.10
12060;DHT22;6091;51.432;6.880;2023-11-19T08:57:45;23.60;40.10
12060;DHT22;6091;51.432;6.880;2023-11-19T09:00:13;23.60;40.10
12060;DHT22;6091;51.432;6.880;2023-11-19T09:02:41;23.60;40.10
12060;DHT22;6091;51.432;6.880;2023-11-19T09:05:10;23.70;40.10
12060;DHT22;6091;51.432;6.880;2023-11-19T09:07:40;23.70;40.10
12060;DHT22;6091;51.432;6.880;2023-11-19T09:10:07;23.70;40.10
12060;DHT22;6091;51.432;6.880;2023-11-19T09:12:35;23.70;40.10
12060;DHT22;6091;51.432;6.880;2023-11-19T09:15:03;23.70;40.10
12060;DHT22;6091;51.432;6.880;2023-11-19T09:17:30;23.70;40.10
12060;DHT22;6091;51.432;6.880;2023-11-19T09:19:57;23.70;40.10
12060;DHT22;6091;51.432;6.880;2023-11-19T09:22:24;23.70;40.00
12060;DHT22;6091;51.432;6.880;2023-11-19T09:24:52;23.70;40.00
12060;DHT22;6091;51.432;6.880;2023-11-19T09:27:19;23.70;40.00
12060;DHT22;6091;51.432;6.880;2023-11-19T09:29:48;23.70;40.00
12060;DHT22;6091;51.432;6.880;2023-11-19T09:32:16;23.80;40.10
12060;DHT22;6091;51.432;6.880;2023-11-19T09:34:43;23.80;40.10
12060;DHT22;6091;51.432;6.880;2023-11-19T09:37:10;23.70;40.00
12060;DHT22;6091;51.432;6.880;2023-11-19T09:39:41;23.90;40.10
12060;DHT22;6091;51.432;6.880;2023-11-19T09:42:12;23.80;40.10
12060;DHT22;6091;51.432;6.880;2023-11-19T09:44:41;23.80;40.10
12060;DHT22;6091;51.432;6.880;2023-11-19T09:47:11;23.80;40.10
12060;DHT22;6091;51.432;6.880;2023-11-19T09:49:39;23.80;40.10
12060;DHT22;6091;51.432;6.880;2023-11-19T09:52:07;23.80;40.10
12060;DHT22;6091;51.432;6.880;2023-11-19T09:54:34;23.80;40.10
12060;DHT22;6091;51.432;6.880;2023-11-19T09:57:02;23.80;40.10
12060;DHT22;6091;51.432;6.880;2023-11-19T09:59:35;23.80;40.00
12060;DHT22;6091;51.432;6.880;2023-11-19T10:02:06;23.90;40.10
12060;DHT22;6091;51.432;6.880;2023-11-19T10:04:37;23.80;40.00
12060;DHT22;6091;51.432;6.880;2023-11-19T10:07:06;23.90;40.00
12060;DHT22;6091;51.432;6.880;2023-11-19T10:09:34;23.90;40.60
12060;DHT22;6091;51.432;6.880;2023-11-19T10:12:01;23.90;40.00
12060;DHT22;6091;51.432;6.880;2023-11-19T10:14:30;23.90;40.00
12060;DHT22;6091;51.432;6.880;2023-11-19T10:16:58;23.90;40.00
12060;DHT22;6091;51.432;6.880;2023-11-19T10:19:25;23.90;40.00
12060;DHT22;6091;51.432;6.880;2023-11-19T10:21:54;23.90;40.00
12060;DHT22;6091;51.432;6.880;2023-11-19T10:24:34;23.90;40.00
12060;DHT22;6091;51.432;6.880;2023-11-19T10:27:08;23.90;40.00
12060;DHT22;6091;51.432;6.880;2023-11-19T10:29:39;23.90;40.00
12060;DHT22;6091;51.432;6.880;2023-11-19T10:32:06;23.90;40.00
12060;DHT22;6091;51.432;6.880;2023-11-19T10:34:58;23.90;40.00
12060;DHT22;6091;51.432;6.880;2023-11-19T10:37:33;23.90;40.00
12060;DHT22;6091;51.432;6.880;2023-11-19T10:40:02;23.90;40.00
12060;DHT22;6091;51.432;6.880;2023-11-19T10:42:33;23.90;40.00
12060;DHT22;6091;51.432;6.880;2023-11-19T10:45:00;23.90;40.00
12060;DHT22;6091;51.432;6.880;2023-11-19T10:47:29;23.90;40.00
12060;DHT22;6091;51.432;6.880;2023-11-19T10:50:01;23.90;40.00
12060;DHT22;6091;51.432;6.880;2023-11-19T10:52:28;23.90;40.00
12060;DHT22;6091;51.432;6.880;2023-11-19T10:55:00;23.90;40.00
12060;DHT22;6091;51.432;6.880;2023-11-19T10:57:36;23.90;40.00
12060;DHT22;6091;51.432;6.880;2023-11-19T11:00:04;24.00;40.20
12060;DHT22;6091;51.432;6.880;2023-11-19T11:02:41;23.90;40.10
12060;DHT22;6091;51.432;6.880;2023-11-19T11:05:15;24.00;40.20
12060;DHT22;6091;51.432;6.880;2023-11-19T11:07:44;24.00;40.10
12060;DHT22;6091;51.432;6.880;2023-11-19T11:10:13;24.00;40.10
12060;DHT22;6091;51.432;6.880;2023-11-19T11:12:43;24.00;40.10
12060;DHT22;6091;51.432;6.880;2023-11-19T11:15:14;24.10;40.20
12060;DHT22;6091;51.432;6.880;2023-11-19T11:17:44;24.10;40.10
12060;DHT22;6091;51.432;6.880;2023-11-19T11:20:13;24.10;40.00
12060;DHT22;6091;51.432;6.880;2023-11-19T11:37:49;24.20;40.30
12060;DHT22;6091;51.432;6.880;2023-11-19T11:40:20;24.30;40.50
12060;DHT22;6091;51.432;6.880;2023-11-19T11:42:50;24.30;41.10
12060;DHT22;6091;51.432;6.880;2023-11-19T11:45:19;24.40;40.60
12060;DHT22;6091;51.432;6.880;2023-11-19T11:48:17;24.50;40.60
12060;DHT22;6091;51.432;6.880;2023-11-19T11:50:53;24.60;40.50
12060;DHT22;6091;51.432;6.880;2023-11-19T11:53:25;24.70;40.40
12060;DHT22;6091;51.432;6.880;2023-11-19T11:55:55;24.80;40.40
12060;DHT22;6091;51.432;6.880;2023-11-19T11:58:31;24.90;40.40
12060;DHT22;6091;51.432;6.880;2023-11-19T12:01:02;25.00;40.20
12060;DHT22;6091;51.432;6.880;2023-11-19T12:03:33;25.00;40.30
12060;DHT22;6091;51.432;6.880;2023-11-19T12:06:01;25.20;40.40
12060;DHT22;6091;51.432;6.880;2023-11-19T12:08:30;25.30;40.40
12060;DHT22;6091;51.432;6.880;2023-11-19T12:10:58;25.40;40.20
12060;DHT22;6091;51.432;6.880;2023-11-19T12:13:52;25.50;40.00
12060;DHT22;6091;51.432;6.880;2023-11-19T12:16:23;25.60;39.60
12060;DHT22;6091;51.432;6.880;2023-11-19T12:18:51;25.60;39.70
12060;DHT22;6091;51.432;6.880;2023-11-19T12:21:31;25.70;39.70
12060;DHT22;6091;51.432;6.880;2023-11-19T12:23:59;25.70;39.30
12060;DHT22;6091;51.432;6.880;2023-11-19T12:26:36;25.70;39.40
12060;DHT22;6091;51.432;6.880;2023-11-19T12:29:05;25.80;39.30
12060;DHT22;6091;51.432;6.880;2023-11-19T12:31:36;25.70;39.30
12060;DHT22;6091;51.432;6.880;2023-11-19T12:34:07;25.70;39.30
12060;DHT22;6091;51.432;6.880;2023-11-19T12:36:40;25.70;39.20
12060;DHT22;6091;51.432;6.880;2023-11-19T12:39:08;25.70;39.20
12060;DHT22;6091;51.432;6.880;2023-11-19T12:41:50;25.60;39.20
12060;DHT22;6091;51.432;6.880;2023-11-19T12:44:18;25.60;38.90
12060;DHT22;6091;51.432;6.880;2023-11-19T12:46:53;25.60;39.10
12060;DHT22;6091;51.432;6.880;2023-11-19T12:49:35;25.60;39.10
12060;DHT22;6091;51.432;6.880;2023-11-19T12:52:11;25.60;39.10
12060;DHT22;6091;51.432;6.880;2023-11-19T12:54:41;25.60;38.90
12060;DHT22;6091;51.432;6.880;2023-11-19T12:57:09;25.50;39.10
12060;DHT22;6091;51.432;6.880;2023-11-19T12:59:36;25.50;39.00
12060;DHT22;6091;51.432;6.880;2023-11-19T13:02:04;25.50;39.00
12060;DHT22;6091;51.432;6.880;2023-11-19T13:04:34;25.40;39.00
12060;DHT22;6091;51.432;6.880;2023-11-19T13:07:02;25.40;39.00
12060;DHT22;6091;51.432;6.880;2023-11-19T13:09:33;25.40;39.00
12060;DHT22;6091;51.432;6.880;2023-11-19T13:12:13;25.40;39.00
12060;DHT22;6091;51.432;6.880;2023-11-19T13:14:42;25.40;38.90
12060;DHT22;6091;51.432;6.880;2023-11-19T13:17:15;25.30;39.10
12060;DHT22;6091;51.432;6.880;2023-11-19T13:19:43;25.40;39.00
12060;DHT22;6091;51.432;6.880;2023-11-19T13:22:13;25.30;39.10
12060;DHT22;6091;51.432;6.880;2023-11-19T13:24:42;25.40;39.20
12060;DHT22;6091;51.432;6.880;2023-11-19T13:27:10;25.40;39.10
12060;DHT22;6091;51.432;6.880;2023-11-19T13:29:37;25.40;39.10
12060;DHT22;6091;51.432;6.880;2023-11-19T13:32:05;25.40;39.10
12060;DHT22;6091;51.432;6.880;2023-11-19T13:34:32;25.40;39.00
12060;DHT22;6091;51.432;6.880;2023-11-19T13:37:00;25.40;39.00
12060;DHT22;6091;51.432;6.880;2023-11-19T13:39:28;25.40;39.00
12060;DHT22;6091;51.432;6.880;2023-11-19T13:41:55;25.40;39.60
12060;DHT22;6091;51.432;6.880;2023-11-19T13:44:27;25.40;39.00
12060;DHT22;6091;51.432;6.880;2023-11-19T13:46:55;25.40;39.00
12060;DHT22;6091;51.432;6.880;2023-11-19T13:49:22;25.10;38.80
12060;DHT22;6091;51.432;6.880;2023-11-19T13:51:51;25.40;38.90
12060;DHT22;6091;51.432;6.880;2023-11-19T13:54:21;25.40;38.90
12060;DHT22;6091;51.432;6.880;2023-11-19T13:56:50;25.40;38.90
12060;DHT22;6091;51.432;6.880;2023-11-19T13:59:23;25.40;38.90
12060;DHT22;6091;51.432;6.880;2023-11-19T14:01:51;25.30;38.90
12060;DHT22;6091;51.432;6.880;2023-11-19T14:04:19;25.30;38.90
12060;DHT22;6091;51.432;6.880;2023-11-19T14:06:46;25.30;38.90
12060;DHT22;6091;51.432;6.880;2023-11-19T14:09:14;25.30;38.90
12060;DHT22;6091;51.432;6.880;2023-11-19T14:11:42;25.30;38.90
12060;DHT22;6091;51.432;6.880;2023-11-19T14:14:10;25.30;38.90
12060;DHT22;6091;51.432;6.880;2023-11-19T14:16:38;25.30;38.90
12060;DHT22;6091;51.432;6.880;2023-11-19T14:19:06;25.30;38.90
12060;DHT22;6091;51.432;6.880;2023-11-19T14:21:33;25.30;38.90
12060;DHT22;6091;51.432;6.880;2023-11-19T14:24:01;25.20;38.80
12060;DHT22;6091;51.432;6.880;2023-11-19T14:26:28;25.20;38.80
12060;DHT22;6091;51.432;6.880;2023-11-19T14:28:57;25.20;38.70
12060;DHT22;6091;51.432;6.880;2023-11-19T14:31:28;25.20;38.90
12060;DHT22;6091;51.432;6.880;2023-11-19T14:33:56;25.20;38.90
12060;DHT22;6091;51.432;6.880;2023-11-19T14:36:23;25.20;38.90
12060;DHT22;6091;51.432;6.880;2023-11-19T14:38:51;25.20;38.90
12060;DHT22;6091;51.432;6.880;2023-11-19T14:41:19;25.20;38.80
12060;DHT22;6091;51.432;6.880;2023-11-19T14:43:46;25.20;38.80
12060;DHT22;6091;51.432;6.880;2023-11-19T14:46:15;25.20;38.80
12060;DHT22;6091;51.432;6.880;2023-11-19T14:48:44;25.20;38.80
12060;DHT22;6091;51.432;6.880;2023-11-19T14:51:12;25.20;38.90
12060;DHT22;6091;51.432;6.880;2023-11-19T14:53:39;25.20;38.90
12060;DHT22;6091;51.432;6.880;2023-11-19T14:56:10;25.20;38.80
12060;DHT22;6091;51.432;6.880;2023-11-19T14:58:40;25.10;38.80
12060;DHT22;6091;51.432;6.880;2023-11-19T15:01:12;25.10;38.80
12060;DHT22;6091;51.432;6.880;2023-11-19T15:03:40;25.10;38.80
12060;DHT22;6091;51.432;6.880;2023-11-19T15:06:11;25.10;38.80
12060;DHT22;6091;51.432;6.880;2023-11-19T15:08:38;25.20;38.90
12060;DHT22;6091;51.432;6.880;2023-11-19T15:11:07;25.10;38.80
12060;DHT22;6091;51.432;6.880;2023-11-19T15:13:36;25.10;38.90
12060;DHT22;6091;51.432;6.880;2023-11-19T15:16:05;25.10;38.90
12060;DHT22;6091;51.432;6.880;2023-11-19T15:18:33;25.10;38.90
12060;DHT22;6091;51.432;6.880;2023-11-19T15:21:00;25.10;38.90
12060;DHT22;6091;51.432;6.880;2023-11-19T15:23:29;25.00;38.80
12060;DHT22;6091;51.432;6.880;2023-11-19T15:25:56;25.00;38.80
12060;DHT22;6091;51.432;6.880;2023-11-19T15:28:24;25.00;38.90
12060;DHT22;6091;51.432;6.880;2023-11-19T15:30:51;25.00;38.80
12060;DHT22;6091;51.432;6.880;2023-11-19T15:33:19;25.00;38.80
12060;DHT22;6091;51.432;6.880;2023-11-19T15:35:46;25.00;38.90
12060;DHT22;6091;51.432;6.880;2023-11-19T15:38:15;24.90;38.80
12060;DHT22;6091;51.432;6.880;2023-11-19T15:40:42;25.00;38.90
12060;DHT22;6091;51.432;6.880;2023-11-19T15:43:10;25.00;38.90
12060;DHT22;6091;51.432;6.880;2023-11-19T15:45:38;24.90;38.80
12060;DHT22;6091;51.432;6.880;2023-11-19T15:48:08;25.30;39.10
12060;DHT22;6091;51.432;6.880;2023-11-19T15:50:36;25.00;38.90
12060;DHT22;6091;51.432;6.880;2023-11-19T15:53:03;24.90;38.90
12060;DHT22;6091;51.432;6.880;2023-11-19T15:55:30;25.00;38.90
12060;DHT22;6091;51.432;6.880;2023-11-19T15:57:58;24.90;38.90
12060;DHT22;6091;51.432;6.880;2023-11-19T16:00:26;24.90;38.90
12060;DHT22;6091;51.432;6.880;2023-11-19T16:02:54;24.90;38.90
12060;DHT22;6091;51.432;6.880;2023-11-19T16:05:23;24.90;38.90
12060;DHT22;6091;51.432;6.880;2023-11-19T16:07:51;25.00;39.00
12060;DHT22;6091;51.432;6.880;2023-11-19T16:10:19;24.90;39.60